createdAt,value
2017-08-01T00:00:02.146Z,17.74
2017-08-01T00:05:02.930Z,17.75
2017-08-01T00:10:02.149Z,17.8
2017-08-01T00:15:02.367Z,17.81
2017-08-01T00:20:02.371Z,17.82
2017-08-01T00:25:02.565Z,17.79
2017-08-01T00:30:02.764Z,17.75
2017-08-01T00:35:03.062Z,17.72
2017-08-01T00:40:02.316Z,17.69
2017-08-01T00:45:02.505Z,17.67
2017-08-01T00:50:02.201Z,17.66
2017-08-01T00:55:02.399Z,17.66
2017-08-01T01:00:02.611Z,17.65
2017-08-01T01:05:02.795Z,17.67
2017-08-01T01:10:02.995Z,17.64
2017-08-01T01:15:02.215Z,17.63
2017-08-01T01:20:02.453Z,17.61
2017-08-01T01:25:02.661Z,17.49
2017-08-01T01:30:02.871Z,17.4
2017-08-01T01:35:02.525Z,17.39
2017-08-01T01:40:02.735Z,17.38
2017-08-01T01:45:02.941Z,17.35
2017-08-01T01:50:02.484Z,17.3
2017-08-01T01:55:02.677Z,17.26
2017-08-01T02:00:02.888Z,17.2
2017-08-01T02:05:02.794Z,17.02
2017-08-01T02:10:02.995Z,16.92
2017-08-01T02:15:02.204Z,16.91
2017-08-01T02:20:02.844Z,17
2017-08-01T02:25:03.060Z,17.04
2017-08-01T02:30:02.235Z,17.07
2017-08-01T02:35:02.961Z,17.1
2017-08-01T02:40:02.213Z,17.1
2017-08-01T02:45:02.432Z,17.13
2017-08-01T02:50:03.088Z,17.14
2017-08-01T02:55:02.327Z,17.14
2017-08-01T03:00:02.540Z,17.14
2017-08-01T03:05:03.076Z,17.14
2017-08-01T03:10:02.272Z,17.11
2017-08-01T03:15:02.500Z,17.09
2017-08-01T03:20:02.882Z,17.09
2017-08-01T03:25:03.078Z,17.1
2017-08-01T03:30:02.300Z,17.07
2017-08-01T03:35:02.255Z,17.04
2017-08-01T03:40:02.511Z,17.02
2017-08-01T03:45:02.708Z,17.02
2017-08-01T03:50:02.973Z,17
2017-08-01T03:55:02.164Z,16.99
2017-08-01T04:00:02.374Z,16.96
2017-08-01T04:05:03.055Z,16.94
2017-08-01T04:10:02.259Z,16.93
2017-08-01T04:15:02.540Z,16.92
2017-08-01T04:20:02.826Z,16.92
2017-08-01T04:25:03.111Z,16.95
2017-08-01T04:30:02.309Z,16.99
2017-08-01T04:35:02.162Z,16.99
2017-08-01T04:40:02.404Z,16.92
2017-08-01T04:45:02.628Z,16.9
2017-08-01T04:50:02.666Z,16.89
2017-08-01T04:55:02.927Z,16.94
2017-08-01T05:00:03.128Z,17.03
2017-08-01T05:05:02.425Z,17.08
2017-08-01T05:10:02.625Z,17.1
2017-08-01T05:15:02.844Z,17.11
2017-08-01T05:20:02.285Z,17.17
2017-08-01T05:25:02.485Z,17.24
2017-08-01T05:30:02.669Z,17.32
2017-08-01T05:35:02.912Z,17.37
2017-08-01T05:40:03.105Z,17.41
2017-08-01T05:45:02.297Z,17.5
2017-08-01T05:50:02.172Z,17.6
2017-08-01T05:55:02.415Z,17.67
2017-08-01T06:00:02.600Z,17.7
2017-08-01T06:05:02.196Z,17.76
2017-08-01T06:10:02.415Z,17.87
2017-08-01T06:15:02.622Z,18.06
2017-08-01T06:20:02.505Z,18.2
2017-08-01T06:25:02.726Z,18.38
2017-08-01T06:30:03.000Z,18.55
2017-08-01T06:35:02.269Z,18.74
2017-08-01T06:40:07.507Z,18.99
2017-08-01T06:45:02.684Z,19.16
2017-08-01T06:50:02.510Z,19.35
2017-08-01T06:55:02.677Z,19.55
2017-08-01T07:00:02.891Z,19.68
2017-08-01T07:05:02.234Z,19.81
2017-08-01T07:10:02.537Z,19.92
2017-08-01T07:15:02.874Z,20.17
2017-08-01T07:20:02.148Z,20.34
2017-08-01T07:25:02.322Z,20.48
2017-08-01T07:30:02.523Z,20.7
2017-08-01T07:35:02.295Z,21.09
2017-08-01T07:40:02.497Z,21.46
2017-08-01T07:45:02.696Z,21.79
2017-08-01T07:50:02.854Z,22.25
2017-08-01T07:55:03.046Z,22.79
2017-08-01T08:00:02.286Z,23.05
2017-08-01T08:05:02.521Z,22.91
2017-08-01T08:10:02.722Z,22.67
2017-08-01T08:15:02.923Z,22.47
2017-08-01T08:20:02.537Z,23
2017-08-01T08:25:02.738Z,23.96
2017-08-01T08:30:02.985Z,24.23
2017-08-01T08:35:02.501Z,24.83
2017-08-01T08:40:02.726Z,24.68
2017-08-01T08:45:03.076Z,24.11
2017-08-01T08:50:02.283Z,23.61
2017-08-01T08:55:02.497Z,23.47
2017-08-01T09:00:02.684Z,23.57
2017-08-01T09:05:02.369Z,23.47
2017-08-01T09:10:02.599Z,23.43
2017-08-01T09:15:02.804Z,23.41
2017-08-01T09:20:02.801Z,23.3
2017-08-01T09:25:03.102Z,23.14
2017-08-01T09:30:02.326Z,22.93
2017-08-01T09:35:02.538Z,22.75
2017-08-01T09:40:02.773Z,22.6
2017-08-01T09:45:03.059Z,22.54
2017-08-01T09:50:02.577Z,22.55
2017-08-01T09:55:02.797Z,22.49
2017-08-01T10:00:03.012Z,22.38
2017-08-01T10:05:02.837Z,22.35
2017-08-01T10:10:03.035Z,22.25
2017-08-01T10:15:02.249Z,22.08
2017-08-01T10:20:02.798Z,21.93
2017-08-01T10:25:03.044Z,21.84
2017-08-01T10:30:02.425Z,21.83
2017-08-01T10:35:02.664Z,21.81
2017-08-01T10:40:02.839Z,21.79
2017-08-01T10:45:03.030Z,21.69
2017-08-01T10:50:02.291Z,21.63
2017-08-01T10:55:02.502Z,21.67
2017-08-01T11:00:02.700Z,21.92
2017-08-01T11:05:03.018Z,22.03
2017-08-01T11:10:02.252Z,22.25
2017-08-01T11:15:02.432Z,22.53
2017-08-01T11:20:02.557Z,22.57
2017-08-01T11:25:02.740Z,22.49
2017-08-01T11:30:02.964Z,22.42
2017-08-01T11:35:02.229Z,22.42
2017-08-01T11:40:02.447Z,22.5
2017-08-01T11:45:02.652Z,22.6
2017-08-01T11:50:02.905Z,23.2
2017-08-01T11:55:03.107Z,23.98
2017-08-01T12:00:02.314Z,24.35
2017-08-01T12:05:02.470Z,24.3
2017-08-01T12:10:02.686Z,24.21
2017-08-01T12:15:02.886Z,24.29
2017-08-01T12:20:02.714Z,24.54
2017-08-01T12:25:02.930Z,24.87
2017-08-01T12:30:03.198Z,25.01
2017-08-01T12:35:02.398Z,24.99
2017-08-01T12:40:02.645Z,24.99
2017-08-01T12:45:02.891Z,25.03
2017-08-01T12:50:03.062Z,24.87
2017-08-01T12:55:02.286Z,24.79
2017-08-01T13:00:02.486Z,24.53
2017-08-01T13:05:02.413Z,24.38
2017-08-01T13:10:02.665Z,24.32
2017-08-01T13:15:02.878Z,24.18
2017-08-01T13:20:02.786Z,24.13
2017-08-01T13:25:03.020Z,23.97
2017-08-01T13:30:02.280Z,23.77
2017-08-01T13:35:02.650Z,23.58
2017-08-01T13:40:02.892Z,23.47
2017-08-01T13:45:03.101Z,23.4
2017-08-01T13:50:02.358Z,23.28
2017-08-01T13:55:02.560Z,23.21
2017-08-01T14:00:02.772Z,23.15
2017-08-01T14:05:02.784Z,23.26
2017-08-01T14:10:03.067Z,23.55
2017-08-01T14:15:02.276Z,23.72
2017-08-01T14:20:02.386Z,23.69
2017-08-01T14:25:02.603Z,23.53
2017-08-01T14:30:02.799Z,23.49
2017-08-01T14:35:03.011Z,23.49
2017-08-01T14:40:02.263Z,23.44
2017-08-01T14:45:02.434Z,23.43
2017-08-01T14:50:02.461Z,23.5
2017-08-01T14:55:02.683Z,23.51
2017-08-01T15:00:02.939Z,23.54
2017-08-01T15:05:02.168Z,23.51
2017-08-01T15:10:02.373Z,23.51
2017-08-01T15:15:02.584Z,23.54
2017-08-01T15:20:03.139Z,23.52
2017-08-01T15:25:02.376Z,23.55
2017-08-01T15:30:02.588Z,23.54
2017-08-01T15:35:02.791Z,23.52
2017-08-01T15:40:03.019Z,23.46
2017-08-01T15:45:02.206Z,23.41
2017-08-01T15:50:02.431Z,23.37
2017-08-01T15:55:02.624Z,23.26
2017-08-01T16:00:02.792Z,23.14
2017-08-01T16:05:02.218Z,23.03
2017-08-01T16:10:02.448Z,22.98
2017-08-01T16:15:02.637Z,22.91
2017-08-01T16:20:02.175Z,22.85
2017-08-01T16:25:02.390Z,22.81
2017-08-01T16:30:02.569Z,22.78
2017-08-01T16:35:02.815Z,22.75
2017-08-01T16:40:03.028Z,22.69
2017-08-01T16:45:02.187Z,22.6
2017-08-01T16:50:02.552Z,22.33
2017-08-01T16:55:02.849Z,21.94
2017-08-01T17:00:03.070Z,21.78
2017-08-01T17:05:03.109Z,21.59
2017-08-01T17:10:02.320Z,21.54
2017-08-01T17:15:02.582Z,21.48
2017-08-01T17:20:02.785Z,21.42
2017-08-01T17:25:03.001Z,21.4
2017-08-01T17:30:02.215Z,21.42
2017-08-01T17:35:02.341Z,21.45
2017-08-01T17:40:02.601Z,21.44
2017-08-01T17:45:02.786Z,21.45
2017-08-01T17:50:02.298Z,21.46
2017-08-01T17:55:02.507Z,21.45
2017-08-01T18:00:02.807Z,21.45
2017-08-01T18:05:02.796Z,21.45
2017-08-01T18:10:03.050Z,21.46
2017-08-01T18:15:02.297Z,21.47
2017-08-01T18:20:02.838Z,21.46
2017-08-01T18:25:03.053Z,21.4
2017-08-01T18:30:02.261Z,21.36
2017-08-01T18:35:03.019Z,21.3
2017-08-01T18:40:02.248Z,21.21
2017-08-01T18:45:02.459Z,21.11
2017-08-01T18:50:02.948Z,21
2017-08-01T18:55:02.160Z,20.9
2017-08-01T19:00:02.372Z,20.76
2017-08-01T19:05:02.381Z,20.69
2017-08-01T19:10:02.611Z,20.61
2017-08-01T19:15:02.828Z,20.55
2017-08-01T19:20:02.383Z,20.43
2017-08-01T19:25:02.708Z,20.32
2017-08-01T19:30:02.890Z,20.24
2017-08-01T19:35:02.243Z,20.18
2017-08-01T19:40:02.458Z,20.09
2017-08-01T19:45:02.641Z,20.04
2017-08-01T19:50:03.059Z,20
2017-08-01T19:55:02.291Z,19.94
2017-08-01T20:00:02.441Z,19.87
2017-08-01T20:05:02.280Z,19.81
2017-08-01T20:10:02.546Z,19.73
2017-08-01T20:15:02.776Z,19.69
2017-08-01T20:20:02.819Z,19.6
2017-08-01T20:25:03.009Z,19.54
2017-08-01T20:30:02.242Z,19.47
2017-08-01T20:35:02.657Z,19.4
2017-08-01T20:40:02.913Z,19.28
2017-08-01T20:45:03.102Z,19.21
2017-08-01T20:50:02.764Z,19.15
2017-08-01T20:55:03.002Z,19.09
2017-08-01T21:00:02.206Z,19.02
2017-08-01T21:05:02.768Z,19.01
2017-08-01T21:10:03.010Z,18.96
2017-08-01T21:15:02.213Z,18.93
2017-08-01T21:20:02.586Z,18.88
2017-08-01T21:25:02.798Z,18.86
2017-08-01T21:30:02.976Z,18.79
2017-08-01T21:35:02.998Z,18.74
2017-08-01T21:40:02.224Z,18.68
2017-08-01T21:45:02.401Z,18.64
2017-08-01T21:50:02.479Z,18.59
2017-08-01T21:55:02.676Z,18.56
2017-08-01T22:00:03.040Z,18.54
2017-08-01T22:05:02.263Z,18.49
2017-08-01T22:10:02.466Z,18.41
2017-08-01T22:15:02.682Z,18.33
2017-08-01T22:20:02.600Z,18.25
2017-08-01T22:25:02.780Z,18.18
2017-08-01T22:30:03.001Z,18.11
2017-08-01T22:35:02.945Z,18.08
2017-08-01T22:40:02.144Z,18.05
2017-08-01T22:45:02.348Z,18.05
2017-08-01T22:50:02.479Z,18.02
2017-08-01T22:55:02.689Z,18
2017-08-01T23:00:02.901Z,18
2017-08-01T23:05:02.406Z,17.99
2017-08-01T23:10:02.588Z,17.97
2017-08-01T23:15:02.791Z,17.96
2017-08-01T23:20:02.994Z,17.92
2017-08-01T23:25:02.181Z,17.87
2017-08-01T23:30:02.403Z,17.81
2017-08-01T23:35:02.292Z,17.77
2017-08-01T23:40:02.529Z,17.74
2017-08-01T23:45:02.737Z,17.7
2017-08-01T23:50:02.948Z,17.65
2017-08-01T23:55:02.172Z,17.63
